Aeroporto :
LOGIN :

Iscrizione | Disclaimer

   EN    FR    IT 

 










Sommario :    VFR   VFR Marginale   IFR   IFR Intensivo   IFR Molto Intensivo
Visibilità : 
Base nubi : 
>= 8 km
>= 3000ft
5 / 8 km
1000 / 3000 ft
1500m / 5 km
500 / 1000 ft
800 / 1500m
200 / 500 ft
< 800m
< 200 ft
Simboli :   Temporali  Nebbia  Neve Forte  Precipitazioni Forti  Vento > 20 kt
SIGMETs :   Varie  Temporali  Ghiacco  Turbolenza  Onda orograficha  Ceneri Vulcaniche






- Altitudine del aeroporto : 386 ft
- Codice IATA : QOE


ETNN - Nörvenich Airforce Base

ULTIMO METAR :
  • 240820Z 27012KT 9999 FEW018 SCT035 BKN060 06/01 Q1009 BLU BLU TEMPO GRN

METARs OBSOLETI :
  • 240720Z 27011KT 9999 FEW015 SCT030 BKN060 05/02 Q1010 BLU BLU TEMPO GRN
  • 240620Z 27012KT 9999 FEW010 SCT030 BKN060 05/02 Q1010 BLU BLU TEMPO GRN
  • 240520Z 26009KT 9999 FEW015 SCT040 BKN060 04/03 Q1010 BLU BLU TEMPO GRN
  • 240420Z 26010KT 9999 BKN070 04/01 Q1010 BLU
  • 240320Z 26007KT 9999 BKN040 BKN080 05/03 Q1011 BLU

TAF TAF ETNN
Valido dal 24 a 08 ore il 24 a 17 ore UTC


240702Z 2408/2417 27012KT 9999 NSW FEW015 BKN030
TEMPO 2408/2417 27012G25KT 4000 SHRAGS BKN014CB
PROB30 2412/2417 28015G28KT 3000 TSRAGS BKN010CB



MetMap, La meteo Aeronautica in un colpo d'occhio ! - Copyright ORBIFLY Dicembre 2007 - Disclaimer

ORBIFLY MET'MAP TEAM :

Programmazione e sviluppo : Alexandra Zaïnal
Concezione : Baudouin d'Aumeries
Supporto tecnico e logistico : Manuel Goepfert
Aiuto : Marc-Olivier Méhu
Aiuto per la traduzione : Arnaldo La Scala




FONTI E CREDITI :

   NOAA